Lake Ronkonkoma Heights, New York
Current Conditions -  °F | °C
As of 9:18 PM on Monday 22 Dec 2014 (Local Time) from KISP Reporting Station
Light Rain Light Rain  
Wind Chill: 40°   Ceiling: 700
Heat Index: 44°   Visibility: 3mi
Dew Point: 41°   Wind: 8mph
Humidity: 89%   Direction: 90°E
Pressure: 30.19"   Gusts: NA
Location:  40.8149°N, 73.1229°W
Report Text: KISP 230218Z 09007KT 3SM -RA BR BKN007 OVC011 07/05 A3019 RMK AO2 SFC VIS 6 DZE12RAB12 P0000 T00670050
Loading
Personal Weather Stations






























Interactive Weather Map New forecast layout! Learn more

10-Day Weather Forecast

Advertisements
Track Severe Weather on mobile